createdAt,value
2023-04-14T00:00:20.871Z,49.06
2023-04-14T00:02:47.812Z,49.33
2023-04-14T00:05:14.455Z,49.26
2023-04-14T00:07:49.959Z,49.20
2023-04-14T00:10:16.357Z,49.15
2023-04-14T00:12:42.720Z,49.07
2023-04-14T00:15:09.222Z,49.32
2023-04-14T00:17:35.589Z,49.38
2023-04-14T00:20:02.008Z,49.14
2023-04-14T00:22:28.399Z,49.30
2023-04-14T00:24:55.375Z,49.18
2023-04-14T00:27:21.738Z,49.37
2023-04-14T00:29:48.332Z,49.61
2023-04-14T00:32:14.684Z,49.74
2023-04-14T00:34:41.066Z,49.71
2023-04-14T00:37:07.460Z,49.61
2023-04-14T00:39:33.871Z,49.91
2023-04-14T00:42:03.347Z,49.97
2023-04-14T00:44:30.763Z,49.84
2023-04-14T00:46:57.400Z,49.93
2023-04-14T00:49:24.000Z,49.99
2023-04-14T00:51:50.385Z,49.92
2023-04-14T00:54:18.117Z,49.80
2023-04-14T00:56:44.695Z,49.79
2023-04-14T00:59:11.109Z,49.92
2023-04-14T01:01:37.759Z,49.77
2023-04-14T01:04:04.598Z,49.81
2023-04-14T01:06:31.982Z,49.81
2023-04-14T01:08:58.494Z,49.83
2023-04-14T01:11:40.932Z,49.82
2023-04-14T01:14:09.784Z,49.77
2023-04-14T01:16:37.321Z,49.47
2023-04-14T01:19:17.166Z,49.50
2023-04-14T01:21:43.899Z,49.74
2023-04-14T01:24:23.113Z,49.67
2023-04-14T01:26:51.061Z,49.68
2023-04-14T01:29:23.297Z,49.57
2023-04-14T01:31:49.616Z,49.50
2023-04-14T01:34:34.572Z,49.69
2023-04-14T01:37:05.114Z,49.55
2023-04-14T01:39:33.072Z,49.69
2023-04-14T01:41:59.604Z,49.54
2023-04-14T01:44:25.996Z,49.47
2023-04-14T01:46:53.268Z,49.62
2023-04-14T01:49:19.857Z,49.58
2023-04-14T01:51:46.396Z,49.77
2023-04-14T01:54:12.776Z,49.70
2023-04-14T01:56:39.310Z,49.81
2023-04-14T01:59:06.583Z,49.68
2023-04-14T02:01:33.696Z,49.82
2023-04-14T02:04:01.725Z,49.95
2023-04-14T02:06:28.571Z,49.92
2023-04-14T02:08:57.435Z,49.94
2023-04-14T02:11:23.931Z,49.95
2023-04-14T02:13:50.623Z,49.71
2023-04-14T02:16:17.009Z,49.69
2023-04-14T02:18:43.491Z,49.95
2023-04-14T02:21:10.134Z,49.70
2023-04-14T02:23:37.458Z,49.65
2023-04-14T02:26:16.242Z,49.63
2023-04-14T02:28:47.188Z,49.72
2023-04-14T02:31:13.664Z,49.87
2023-04-14T02:33:42.385Z,49.69
2023-04-14T02:36:18.876Z,49.56
2023-04-14T02:38:46.622Z,49.79
2023-04-14T02:41:14.846Z,49.83
2023-04-14T02:43:46.663Z,49.85
2023-04-14T02:46:14.091Z,49.64
2023-04-14T02:48:42.873Z,49.73
2023-04-14T02:51:09.654Z,49.92
2023-04-14T02:53:36.193Z,49.97
2023-04-14T02:56:15.536Z,49.99
2023-04-14T02:58:44.437Z,49.92
2023-04-14T03:01:11.061Z,49.78
2023-04-14T03:03:37.790Z,49.84
2023-04-14T03:06:08.218Z,49.94
2023-04-14T03:08:35.103Z,49.87
2023-04-14T03:11:02.084Z,49.92
2023-04-14T03:13:29.376Z,49.81
2023-04-14T03:15:56.268Z,49.68
2023-04-14T03:18:23.215Z,49.91
2023-04-14T03:20:53.432Z,49.73
2023-04-14T03:23:20.265Z,49.79
2023-04-14T03:25:51.952Z,49.91
2023-04-14T03:28:23.592Z,49.87
2023-04-14T03:30:51.665Z,49.89
2023-04-14T03:33:19.929Z,49.87
2023-04-14T03:35:46.974Z,49.88
2023-04-14T03:38:15.055Z,49.95
2023-04-14T03:40:44.182Z,49.75
2023-04-14T03:43:18.730Z,49.82
2023-04-14T03:45:49.317Z,49.95
2023-04-14T03:48:18.301Z,49.77
2023-04-14T03:50:48.305Z,50.11
2023-04-14T03:53:15.009Z,50.10
2023-04-14T03:55:42.213Z,50.10
2023-04-14T03:58:08.760Z,50.12
2023-04-14T04:00:35.494Z,49.91
2023-04-14T04:03:02.493Z,50.20
2023-04-14T04:05:29.001Z,49.88
2023-04-14T04:07:55.562Z,50.28
2023-04-14T04:10:23.267Z,50.06
2023-04-14T04:12:50.426Z,50.16
2023-04-14T04:15:16.896Z,50.16
2023-04-14T04:17:43.307Z,50.23
2023-04-14T04:20:12.048Z,50.31
2023-04-14T04:22:39.459Z,50.21
2023-04-14T04:25:06.938Z,49.92
2023-04-14T04:27:35.329Z,50.09
2023-04-14T04:30:12.331Z,50.00
2023-04-14T04:32:39.495Z,50.11
2023-04-14T04:35:07.170Z,50.02
2023-04-14T04:37:33.652Z,50.16
2023-04-14T04:40:00.695Z,50.08
2023-04-14T04:42:27.665Z,49.98
2023-04-14T04:44:54.968Z,50.00
2023-04-14T04:47:21.672Z,50.19
2023-04-14T04:49:48.104Z,50.21
2023-04-14T04:52:15.853Z,50.33
2023-04-14T04:54:42.349Z,50.19
2023-04-14T04:57:08.772Z,49.98
2023-04-14T04:59:37.390Z,50.19
2023-04-14T05:02:04.577Z,50.17
2023-04-14T05:04:31.055Z,50.00
2023-04-14T05:06:57.448Z,46.97
2023-04-14T05:09:23.786Z,48.58
2023-04-14T05:11:50.171Z,48.69
2023-04-14T05:14:16.507Z,44.75
2023-04-14T05:16:42.837Z,45.36
2023-04-14T05:19:09.176Z,45.66
2023-04-14T05:21:35.503Z,47.32
2023-04-14T05:24:02.339Z,46.84
2023-04-14T05:26:44.600Z,47.18
2023-04-14T05:29:14.964Z,46.93
2023-04-14T05:31:41.379Z,47.37
2023-04-14T05:34:07.784Z,47.35
2023-04-14T05:36:34.108Z,47.81
2023-04-14T05:39:00.612Z,48.05
2023-04-14T05:41:26.956Z,48.37
2023-04-14T05:43:53.288Z,48.48
2023-04-14T05:46:19.658Z,48.50
2023-04-14T05:48:46.079Z,48.82
2023-04-14T05:51:12.455Z,48.70
2023-04-14T05:53:38.809Z,48.77
2023-04-14T05:56:05.176Z,48.99
2023-04-14T05:58:31.596Z,49.10
2023-04-14T06:00:57.963Z,49.08
2023-04-14T06:03:24.434Z,49.06
2023-04-14T06:05:52.911Z,49.11
2023-04-14T06:08:19.266Z,49.29
2023-04-14T06:10:45.597Z,49.29
2023-04-14T06:13:12.307Z,49.31
2023-04-14T06:15:38.635Z,49.21
2023-04-14T06:18:05.013Z,49.17
2023-04-14T06:20:32.364Z,49.12
2023-04-14T06:23:00.748Z,49.02
2023-04-14T06:25:27.093Z,49.12
2023-04-14T06:27:53.433Z,49.28
2023-04-14T06:30:19.797Z,48.95
2023-04-14T06:32:46.470Z,49.26
2023-04-14T06:35:25.683Z,49.06
2023-04-14T06:37:58.511Z,49.20
2023-04-14T06:40:24.855Z,49.26
2023-04-14T06:42:51.189Z,49.34
2023-04-14T06:45:17.530Z,49.22
2023-04-14T06:47:43.920Z,49.48
2023-04-14T06:50:10.420Z,49.28
2023-04-14T06:52:36.770Z,49.38
2023-04-14T06:55:03.297Z,49.58
2023-04-14T06:57:29.673Z,49.08
2023-04-14T06:59:56.511Z,49.27
2023-04-14T07:02:22.879Z,49.14
2023-04-14T07:04:49.411Z,48.96
2023-04-14T07:07:15.844Z,48.71
2023-04-14T07:09:42.390Z,48.54
2023-04-14T07:12:15.378Z,48.40
2023-04-14T07:14:41.737Z,48.08
2023-04-14T07:17:08.198Z,48.19
2023-04-14T07:19:34.537Z,48.11
2023-04-14T07:22:01.856Z,48.00
2023-04-14T07:24:28.177Z,48.04
2023-04-14T07:26:54.504Z,48.02
2023-04-14T07:29:21.080Z,47.96
2023-04-14T07:31:47.522Z,47.99
2023-04-14T07:34:13.882Z,48.02
2023-04-14T07:36:40.200Z,48.19
2023-04-14T07:39:06.543Z,48.10
2023-04-14T07:41:32.879Z,47.96
2023-04-14T07:44:00.081Z,47.97
2023-04-14T07:46:27.631Z,47.90
2023-04-14T07:48:54.117Z,47.67
2023-04-14T07:51:20.673Z,47.93
2023-04-14T07:53:47.036Z,47.98
2023-04-14T07:56:13.354Z,48.34
2023-04-14T07:58:40.115Z,48.37
2023-04-14T08:01:06.510Z,48.43
2023-04-14T08:03:33.160Z,48.30
2023-04-14T08:05:59.719Z,48.45
2023-04-14T08:08:26.135Z,48.59
2023-04-14T08:10:52.472Z,48.64
2023-04-14T08:13:18.905Z,48.81
2023-04-14T08:15:45.325Z,48.92
2023-04-14T08:18:11.705Z,48.66
2023-04-14T08:20:38.466Z,48.94
2023-04-14T08:23:04.855Z,48.90
2023-04-14T08:25:31.285Z,48.83
2023-04-14T08:27:57.630Z,48.88
2023-04-14T08:30:24.224Z,48.72
2023-04-14T08:32:50.827Z,48.89
2023-04-14T08:35:35.356Z,49.03
2023-04-14T08:38:02.880Z,48.09
2023-04-14T08:40:31.086Z,48.15
2023-04-14T08:42:57.448Z,47.90
2023-04-14T08:45:23.795Z,47.28
2023-04-14T08:47:50.419Z,46.83
2023-04-14T08:50:18.086Z,46.90
2023-04-14T08:52:44.410Z,46.80
2023-04-14T08:55:11.241Z,46.82
2023-04-14T08:57:37.633Z,46.84
2023-04-14T09:00:04.990Z,46.90
2023-04-14T09:02:32.410Z,46.91
2023-04-14T09:04:59.130Z,46.94
2023-04-14T09:07:26.569Z,46.95
2023-04-14T09:09:52.986Z,47.04
2023-04-14T09:12:19.340Z,46.98
2023-04-14T09:14:48.705Z,47.37
2023-04-14T09:17:15.432Z,47.45
2023-04-14T09:20:35.031Z,47.83
2023-04-14T09:22:28.385Z,47.99
2023-04-14T09:24:54.718Z,48.22
2023-04-14T09:27:21.046Z,48.04
2023-04-14T09:29:47.390Z,48.31
2023-04-14T09:32:13.804Z,48.64
2023-04-14T09:34:53.455Z,48.61
2023-04-14T09:37:22.541Z,48.34
2023-04-14T09:39:52.144Z,48.69
2023-04-14T09:42:18.503Z,48.44
2023-04-14T09:44:52.042Z,48.80
2023-04-14T09:47:18.781Z,49.13
2023-04-14T09:49:55.694Z,49.11
2023-04-14T09:52:22.047Z,49.24
2023-04-14T09:54:48.369Z,48.81
2023-04-14T09:57:24.329Z,48.97
2023-04-14T09:59:50.768Z,48.86
2023-04-14T10:02:17.240Z,49.12
2023-04-14T10:04:43.619Z,48.96
2023-04-14T10:07:12.132Z,49.57
2023-04-14T10:09:38.531Z,49.58
2023-04-14T10:12:12.513Z,50.17
2023-04-14T10:14:42.073Z,50.20
2023-04-14T10:17:08.497Z,50.19
2023-04-14T10:19:35.116Z,50.62
2023-04-14T10:22:01.800Z,50.46
2023-04-14T10:24:28.131Z,50.52
2023-04-14T10:26:54.501Z,50.05
2023-04-14T10:29:21.174Z,50.59
2023-04-14T10:31:55.081Z,50.49
2023-04-14T10:34:21.790Z,50.65
2023-04-14T10:36:48.926Z,51.06
2023-04-14T10:39:20.101Z,50.80
2023-04-14T10:41:52.702Z,51.27
2023-04-14T10:44:22.576Z,51.16
2023-04-14T10:46:48.947Z,51.52
2023-04-14T10:49:15.364Z,50.93
2023-04-14T10:51:41.805Z,51.42
2023-04-14T10:54:18.866Z,51.18
2023-04-14T10:57:03.997Z,51.28
2023-04-14T10:59:30.339Z,51.15
2023-04-14T11:01:56.810Z,51.56
2023-04-14T11:04:23.709Z,51.43
2023-04-14T11:06:50.967Z,51.55
2023-04-14T11:09:23.909Z,51.32
2023-04-14T11:11:50.408Z,51.17
2023-04-14T11:14:16.736Z,51.15
2023-04-14T11:16:54.032Z,50.91
2023-04-14T11:19:28.848Z,50.82
2023-04-14T11:21:55.205Z,51.02
2023-04-14T11:24:21.802Z,51.29
2023-04-14T11:26:48.161Z,51.38
2023-04-14T11:29:14.500Z,51.63
2023-04-14T11:31:40.845Z,51.49
2023-04-14T11:34:07.202Z,51.28
2023-04-14T11:36:37.031Z,51.25
2023-04-14T11:39:04.145Z,51.48
2023-04-14T11:41:30.485Z,51.40
2023-04-14T11:43:56.893Z,51.56
2023-04-14T11:46:23.266Z,51.45
2023-04-14T11:48:53.761Z,51.14
2023-04-14T11:51:20.101Z,50.74
2023-04-14T11:53:46.870Z,51.16
2023-04-14T11:56:14.325Z,51.33
2023-04-14T11:58:40.803Z,50.78
2023-04-14T12:01:07.256Z,50.74
2023-04-14T12:03:35.147Z,50.54
2023-04-14T12:06:02.064Z,50.66
2023-04-14T12:08:32.027Z,51.51
2023-04-14T12:10:58.432Z,51.21
2023-04-14T12:13:24.822Z,50.71
2023-04-14T12:15:51.209Z,50.40
2023-04-14T12:20:47.239Z,50.32
2023-04-14T12:23:13.590Z,50.13
2023-04-14T12:25:39.977Z,49.97
2023-04-14T12:28:06.531Z,49.99
2023-04-14T12:30:33.241Z,50.07
2023-04-14T12:32:59.727Z,49.95
2023-04-14T12:35:26.093Z,49.43
2023-04-14T12:37:52.433Z,49.80
2023-04-14T12:40:18.797Z,50.38
2023-04-14T12:42:46.585Z,50.44
2023-04-14T12:45:13.030Z,50.45
2023-04-14T12:47:39.379Z,50.54
2023-04-14T12:50:25.977Z,50.76
2023-04-14T12:52:52.491Z,50.58
2023-04-14T12:55:19.827Z,50.79
2023-04-14T12:57:46.151Z,50.69
2023-04-14T13:00:13.644Z,50.30
2023-04-14T13:02:40.183Z,50.24
2023-04-14T13:05:06.708Z,49.98
2023-04-14T13:07:33.111Z,50.59
2023-04-14T13:09:59.425Z,50.32
2023-04-14T13:12:25.773Z,50.61
2023-04-14T13:14:52.519Z,50.99
2023-04-14T13:17:18.915Z,50.72
2023-04-14T13:19:45.273Z,50.89
2023-04-14T13:22:12.575Z,50.70
2023-04-14T13:24:38.914Z,50.89
2023-04-14T13:27:06.714Z,50.66
2023-04-14T13:29:33.525Z,50.77
2023-04-14T13:31:59.976Z,50.71
2023-04-14T13:34:29.459Z,50.86
2023-04-14T13:36:56.382Z,50.79
2023-04-14T13:39:22.817Z,50.93
2023-04-14T13:41:49.387Z,50.80
2023-04-14T13:44:15.949Z,50.64
2023-04-14T13:46:44.448Z,50.44
2023-04-14T13:49:11.169Z,50.22
2023-04-14T13:51:38.715Z,50.62
2023-04-14T13:54:05.373Z,50.46
2023-04-14T13:56:31.850Z,50.74
2023-04-14T13:58:58.471Z,50.96
2023-04-14T14:01:24.916Z,50.81
2023-04-14T14:03:51.647Z,50.72
2023-04-14T14:06:19.044Z,50.70
2023-04-14T14:08:46.166Z,50.86
2023-04-14T14:11:12.601Z,50.91
2023-04-14T14:13:38.984Z,51.46
2023-04-14T14:16:06.737Z,52.60
2023-04-14T14:18:33.492Z,51.83
2023-04-14T14:20:59.836Z,52.43
2023-04-14T14:23:26.353Z,52.62
2023-04-14T14:25:53.899Z,53.13
2023-04-14T14:28:22.039Z,52.92
2023-04-14T14:30:48.371Z,53.20
2023-04-14T14:33:14.733Z,53.10
2023-04-14T14:35:41.092Z,53.17
2023-04-14T14:38:07.415Z,53.48
2023-04-14T14:40:33.735Z,53.10
2023-04-14T14:43:00.233Z,52.85
2023-04-14T14:45:31.388Z,53.09
2023-04-14T14:47:59.416Z,52.99
2023-04-14T14:50:25.824Z,53.06
2023-04-14T14:52:52.184Z,52.65
2023-04-14T14:55:18.512Z,52.73
2023-04-14T14:57:44.843Z,52.69
2023-04-14T15:00:11.385Z,52.60
2023-04-14T15:02:38.541Z,52.58
2023-04-14T15:05:05.756Z,52.75
2023-04-14T15:07:32.126Z,52.64
2023-04-14T15:09:58.460Z,52.70
2023-04-14T15:12:24.847Z,52.48
2023-04-14T15:14:51.171Z,52.33
2023-04-14T15:17:18.171Z,52.56
2023-04-14T15:19:44.746Z,52.27
2023-04-14T15:22:11.126Z,52.70
2023-04-14T15:24:37.478Z,52.61
2023-04-14T15:27:03.867Z,52.56
2023-04-14T15:29:30.463Z,52.28
2023-04-14T15:31:56.877Z,52.39
2023-04-14T15:34:23.421Z,52.48
2023-04-14T15:36:49.746Z,52.35
2023-04-14T15:39:16.082Z,52.08
2023-04-14T15:41:42.460Z,52.26
2023-04-14T15:44:08.786Z,52.12
2023-04-14T15:46:35.251Z,51.87
2023-04-14T15:49:01.579Z,52.04
2023-04-14T15:51:27.904Z,51.97
2023-04-14T15:53:54.214Z,51.84
2023-04-14T15:56:23.052Z,52.11
2023-04-14T15:58:49.709Z,51.90
2023-04-14T16:01:16.166Z,51.97
2023-04-14T16:03:42.671Z,52.06
2023-04-14T16:06:09.069Z,51.88
2023-04-14T16:08:36.275Z,51.94
2023-04-14T16:11:02.654Z,51.79
2023-04-14T16:13:28.994Z,51.81
2023-04-14T16:15:55.384Z,51.70
2023-04-14T16:18:21.744Z,51.59
2023-04-14T16:20:50.072Z,51.83
2023-04-14T16:23:16.535Z,51.71
2023-04-14T16:25:47.092Z,51.88
2023-04-14T16:28:13.549Z,51.64
2023-04-14T16:30:39.862Z,51.57
2023-04-14T16:33:06.826Z,51.81
2023-04-14T16:35:34.030Z,51.59
2023-04-14T16:38:00.360Z,51.73
2023-04-14T16:40:26.694Z,51.80
2023-04-14T16:42:53.061Z,51.77
2023-04-14T16:45:20.338Z,51.75
2023-04-14T16:47:47.243Z,51.30
2023-04-14T16:50:13.596Z,51.65
2023-04-14T16:52:40.378Z,51.59
2023-04-14T16:55:06.832Z,51.69
2023-04-14T16:57:33.149Z,51.35
2023-04-14T16:59:59.515Z,50.94
2023-04-14T17:02:26.116Z,50.94
2023-04-14T17:04:52.690Z,50.88
2023-04-14T17:07:19.205Z,50.61
2023-04-14T17:10:05.891Z,51.39
2023-04-14T17:12:32.504Z,50.85
2023-04-14T17:15:00.385Z,50.87
2023-04-14T17:17:26.919Z,50.88
2023-04-14T17:19:54.551Z,51.06
2023-04-14T17:22:21.484Z,51.24
2023-04-14T17:24:47.803Z,51.11
2023-04-14T17:27:14.145Z,51.05
2023-04-14T17:29:43.384Z,51.09
2023-04-14T17:32:10.599Z,50.93
2023-04-14T17:34:37.141Z,50.80
2023-04-14T17:37:04.852Z,51.12
2023-04-14T17:39:31.204Z,50.84
2023-04-14T17:41:58.105Z,51.02
2023-04-14T17:44:28.286Z,51.08
2023-04-14T17:49:10.322Z,52.21
2023-04-14T17:51:36.644Z,50.91
2023-04-14T17:54:11.931Z,50.19
2023-04-14T17:56:38.599Z,50.28
2023-04-14T17:59:04.921Z,50.41
2023-04-14T18:01:31.266Z,50.12
2023-04-14T18:03:59.743Z,49.75
2023-04-14T18:06:26.275Z,51.14
2023-04-14T18:08:52.861Z,51.26
2023-04-14T18:11:20.449Z,50.85
2023-04-14T18:13:46.791Z,51.26
2023-04-14T18:16:13.098Z,51.35
2023-04-14T18:18:39.434Z,51.22
2023-04-14T18:21:05.760Z,51.59
2023-04-14T18:23:32.131Z,51.32
2023-04-14T18:28:28.707Z,51.35
2023-04-14T18:30:55.665Z,51.14
2023-04-14T18:33:22.428Z,51.09
2023-04-14T18:35:49.660Z,51.35
2023-04-14T18:38:16.027Z,51.37
2023-04-14T18:40:42.595Z,51.28
2023-04-14T18:43:08.922Z,51.20
2023-04-14T18:45:35.242Z,51.73
2023-04-14T18:48:01.621Z,51.28
2023-04-14T18:50:28.313Z,51.42
2023-04-14T18:52:55.114Z,51.63
2023-04-14T18:55:35.667Z,51.22
2023-04-14T18:58:14.599Z,51.83
2023-04-14T19:00:41.000Z,51.14
2023-04-14T19:03:08.597Z,50.89
2023-04-14T19:05:36.767Z,51.08
2023-04-14T19:08:03.552Z,51.13
2023-04-14T19:10:29.871Z,51.32
2023-04-14T19:12:56.624Z,51.58
2023-04-14T19:15:22.934Z,51.67
2023-04-14T19:17:49.634Z,51.44
2023-04-14T19:20:16.037Z,51.48
2023-04-14T19:22:42.419Z,51.80
2023-04-14T19:25:09.265Z,51.55
2023-04-14T19:27:38.681Z,51.59
2023-04-14T19:30:05.604Z,51.63
2023-04-14T19:32:32.961Z,51.90
2023-04-14T19:34:59.471Z,51.51
2023-04-14T19:37:26.583Z,51.47
2023-04-14T19:39:53.241Z,51.52
2023-04-14T19:42:19.581Z,51.39
2023-04-14T19:44:46.476Z,52.26
2023-04-14T19:47:12.884Z,51.86
2023-04-14T19:49:39.239Z,51.98
2023-04-14T19:52:05.589Z,52.05
2023-04-14T19:54:31.906Z,51.92
2023-04-14T19:56:58.222Z,52.05
2023-04-14T19:59:24.545Z,52.07
2023-04-14T20:01:51.518Z,52.23
2023-04-14T20:04:18.334Z,52.43
2023-04-14T20:06:44.743Z,52.11
2023-04-14T20:09:11.073Z,52.06
2023-04-14T20:11:37.653Z,52.52
2023-04-14T20:14:04.402Z,52.67
2023-04-14T20:16:30.803Z,52.52
2023-04-14T20:18:57.394Z,52.39
2023-04-14T20:21:24.098Z,52.28
2023-04-14T20:23:50.437Z,52.39
2023-04-14T20:26:17.262Z,52.36
2023-04-14T20:28:43.728Z,52.42
2023-04-14T20:31:10.445Z,52.23
2023-04-14T20:33:36.912Z,52.28
2023-04-14T20:36:03.510Z,52.60
2023-04-14T20:38:29.835Z,52.73
2023-04-14T20:40:56.249Z,52.72
2023-04-14T20:43:23.053Z,52.45
2023-04-14T20:45:49.890Z,52.86
2023-04-14T20:48:16.471Z,52.76
2023-04-14T20:50:44.378Z,52.62
2023-04-14T20:53:10.786Z,52.79
2023-04-14T20:55:37.190Z,52.76
2023-04-14T20:58:03.964Z,53.07
2023-04-14T21:00:31.432Z,52.98
2023-04-14T21:02:59.776Z,53.36
2023-04-14T21:05:26.779Z,53.36
2023-04-14T21:07:53.106Z,53.40
2023-04-14T21:10:19.432Z,52.98
2023-04-14T21:13:54.296Z,52.97
2023-04-14T21:15:53.685Z,52.95
2023-04-14T21:18:19.046Z,52.63
2023-04-14T21:20:45.679Z,52.84
2023-04-14T21:23:12.000Z,52.70
2023-04-14T21:25:38.355Z,53.08
2023-04-14T21:28:04.695Z,53.13
2023-04-14T21:30:31.621Z,53.13
2023-04-14T21:32:58.082Z,53.05
2023-04-14T21:35:25.037Z,53.34
2023-04-14T21:37:51.452Z,52.78
2023-04-14T21:40:18.041Z,52.89
2023-04-14T21:42:44.393Z,53.18
2023-04-14T21:45:10.773Z,53.25
2023-04-14T21:47:37.194Z,53.11
2023-04-14T21:50:10.420Z,53.16
2023-04-14T21:52:36.976Z,52.81
2023-04-14T21:55:03.320Z,53.14
2023-04-14T22:00:17.257Z,53.22
2023-04-14T22:02:44.404Z,53.10
2023-04-14T22:05:14.492Z,52.92
2023-04-14T22:07:41.154Z,52.87
2023-04-14T22:10:07.550Z,52.86
2023-04-14T22:12:37.597Z,53.18
2023-04-14T22:15:04.014Z,53.10
2023-04-14T22:17:31.090Z,53.01
2023-04-14T22:19:57.665Z,52.82
2023-04-14T22:22:24.382Z,52.90
2023-04-14T22:24:51.689Z,52.93
2023-04-14T22:27:18.048Z,53.06
2023-04-14T22:29:44.394Z,52.89
2023-04-14T22:32:10.719Z,53.12
2023-04-14T22:34:37.390Z,53.17
2023-04-14T22:37:03.743Z,53.26
2023-04-14T22:39:30.356Z,53.10
2023-04-14T22:41:56.825Z,53.07
2023-04-14T22:44:23.174Z,53.16
2023-04-14T22:46:49.501Z,53.16
2023-04-14T22:49:15.858Z,53.17
2023-04-14T22:51:42.178Z,53.21
2023-04-14T22:54:08.792Z,53.34
2023-04-14T22:56:36.284Z,53.10
2023-04-14T22:59:02.961Z,53.19
2023-04-14T23:01:29.682Z,53.19
2023-04-14T23:03:56.121Z,53.18
2023-04-14T23:06:25.208Z,53.19
2023-04-14T23:08:52.091Z,52.97
2023-04-14T23:11:21.091Z,53.17
2023-04-14T23:13:47.838Z,53.18
2023-04-14T23:16:16.501Z,53.00
2023-04-14T23:18:43.374Z,52.97
2023-04-14T23:21:09.994Z,53.12
2023-04-14T23:23:36.384Z,53.23
2023-04-14T23:26:02.702Z,53.25
2023-04-14T23:28:29.058Z,53.20
2023-04-14T23:30:55.839Z,53.08
2023-04-14T23:33:22.192Z,53.23
2023-04-14T23:35:48.514Z,53.42
2023-04-14T23:38:15.188Z,53.30
2023-04-14T23:40:41.524Z,53.37
2023-04-14T23:43:08.159Z,53.25
2023-04-14T23:45:37.207Z,53.38
2023-04-14T23:48:04.296Z,53.39
2023-04-14T23:50:59.207Z,53.10
2023-04-14T23:53:16.981Z,53.13
2023-04-14T23:55:43.528Z,53.37
2023-04-14T23:58:09.882Z,53.32
